Time;durP1;ratioP1;P1;durP2;ratioP2;P2;SDS_P1;SDS_P2;PMS_P1;PMS_P2;Temp;Humidity;BMP_temperature;BMP_pressure;BME280_temperature;BME280_humidity;BME280_pressure;Samples;Min_cycle;Max_cycle;Signal;HPM_P1;HPM_P2
2022/03/14 00:00:11;;;;;;;18.30;14.20;;;8.60;99.90;;;;;;5132519;27;20046;-86
2022/03/14 00:02:37;;;;;;;18.95;12.98;;;8.70;99.90;;;;;;5081882;27;20079;-86
2022/03/14 00:05:06;;;;;;;17.15;13.43;;;8.70;99.90;;;;;;5134117;27;20042;-86
2022/03/14 00:07:35;;;;;;;22.83;14.80;;;8.90;99.90;;;;;;5133302;27;20057;-84
2022/03/14 00:10:04;;;;;;;18.48;13.98;;;9.00;99.90;;;;;;5082429;27;20556;-85
2022/03/14 00:12:31;;;;;;;20.17;13.88;;;9.00;99.90;;;;;;5097705;27;20061;-85
2022/03/14 00:14:58;;;;;;;17.92;12.43;;;9.10;99.90;;;;;;5132774;27;20439;-86
2022/03/14 00:17:26;;;;;;;16.90;12.88;;;9.30;99.90;;;;;;5117431;27;20073;-85
2022/03/14 00:19:53;;;;;;;18.38;13.27;;;9.20;99.90;;;;;;5127847;27;20041;-85
2022/03/14 00:22:20;;;;;;;15.55;12.05;;;9.20;99.90;;;;;;5145513;27;20035;-86
2022/03/14 00:24:46;;;;;;;16.08;12.13;;;9.30;99.90;;;;;;5117098;27;20061;-86
2022/03/14 00:27:12;;;;;;;15.23;11.13;;;9.30;99.90;;;;;;5098433;27;20043;-86
2022/03/14 00:29:38;;;;;;;15.27;12.52;;;9.30;99.90;;;;;;5132075;27;20079;-86
2022/03/14 00:32:04;;;;;;;16.73;11.60;;;9.40;99.90;;;;;;5132814;27;20050;-86
2022/03/14 00:34:30;;;;;;;13.77;11.25;;;9.70;99.90;;;;;;5115237;27;20051;-86
2022/03/14 00:36:55;;;;;;;14.75;9.85;;;9.70;99.90;;;;;;5132508;27;20489;-85
2022/03/14 00:39:21;;;;;;;13.82;9.75;;;9.70;99.90;;;;;;5132395;27;20440;-86
2022/03/14 00:41:47;;;;;;;13.82;10.57;;;9.70;99.90;;;;;;5131462;28;20043;-85
2022/03/14 00:44:15;;;;;;;10.20;8.50;;;9.70;99.90;;;;;;5115447;28;20092;-86
2022/03/14 00:46:41;;;;;;;12.07;8.68;;;9.80;99.90;;;;;;5132393;28;20051;-86
2022/03/14 00:49:07;;;;;;;10.75;8.45;;;9.70;99.90;;;;;;5141449;27;20065;-84
2022/03/14 00:51:35;;;;;;;11.45;8.30;;;9.70;99.90;;;;;;5136243;28;20035;-86
2022/03/14 00:54:01;;;;;;;10.15;7.32;;;9.70;99.90;;;;;;5098696;28;20513;-85
2022/03/14 00:56:28;;;;;;;9.88;7.03;;;9.80;99.90;;;;;;5114908;28;20047;-85
2022/03/14 00:58:54;;;;;;;10.68;7.00;;;9.90;99.90;;;;;;5115567;28;20126;-85
2022/03/14 01:01:21;;;;;;;10.45;6.90;;;10.00;99.90;;;;;;5117022;28;20143;-85
2022/03/14 01:03:46;;;;;;;8.57;6.80;;;10.10;99.90;;;;;;5135844;27;20050;-85
2022/03/14 01:06:12;;;;;;;8.70;7.00;;;10.10;99.90;;;;;;5124850;27;20051;-85
2022/03/14 01:08:38;;;;;;;7.95;6.75;;;10.10;99.90;;;;;;5155972;27;20038;-85
2022/03/14 01:11:04;;;;;;;8.05;6.50;;;10.20;99.90;;;;;;5156069;27;20051;-85
2022/03/14 01:13:30;;;;;;;9.02;6.72;;;10.20;99.90;;;;;;5140302;27;20043;-85
2022/03/14 01:15:55;;;;;;;8.38;6.88;;;10.30;99.90;;;;;;5104899;27;20125;-85
2022/03/14 01:18:21;;;;;;;8.98;6.85;;;10.40;99.90;;;;;;5136981;27;20059;-85
2022/03/14 01:20:47;;;;;;;7.35;6.30;;;10.30;99.90;;;;;;5118722;27;20043;-85
2022/03/14 01:23:12;;;;;;;7.53;6.22;;;10.30;99.90;;;;;;5101885;27;20805;-85
2022/03/14 01:25:38;;;;;;;7.75;6.45;;;10.20;99.90;;;;;;5136971;27;20513;-85
2022/03/14 01:28:04;;;;;;;7.45;6.43;;;10.30;99.90;;;;;;5136359;27;20043;-85
2022/03/14 01:30:30;;;;;;;7.15;5.78;;;10.30;99.90;;;;;;5101613;27;20518;-85
2022/03/14 01:32:55;;;;;;;8.45;6.78;;;10.30;99.90;;;;;;5135341;27;20047;-85
2022/03/14 01:35:21;;;;;;;7.18;6.10;;;10.30;99.90;;;;;;5135575;27;20035;-85
2022/03/14 01:37:53;;;;;;;9.25;6.70;;;10.20;99.90;;;;;;5086294;27;20436;-85
2022/03/14 01:40:19;;;;;;;9.70;6.78;;;10.10;99.90;;;;;;5118242;27;20069;-86
2022/03/14 01:42:53;;;;;;;8.23;6.15;;;10.00;99.90;;;;;;5134932;27;20450;-86
2022/03/14 01:45:21;;;;;;;8.27;6.57;;;10.00;99.90;;;;;;5135318;27;20122;-86
2022/03/14 01:47:48;;;;;;;8.85;6.07;;;10.00;99.90;;;;;;5136352;27;20043;-86
2022/03/14 01:50:13;;;;;;;6.90;5.80;;;10.00;99.90;;;;;;5135909;27;20039;-86
2022/03/14 01:52:40;;;;;;;8.55;6.35;;;10.00;99.90;;;;;;5117719;27;20062;-86
2022/03/14 01:55:06;;;;;;;7.95;6.13;;;10.00;99.90;;;;;;5136698;27;20043;-86
2022/03/14 01:57:32;;;;;;;9.10;6.85;;;9.90;99.90;;;;;;5118380;27;20104;-86
2022/03/14 01:59:58;;;;;;;7.28;6.30;;;9.90;99.90;;;;;;5135406;27;20088;-86
2022/03/14 02:02:24;;;;;;;9.80;6.30;;;9.90;99.90;;;;;;5113254;27;20047;-86
2022/03/14 02:04:50;;;;;;;7.32;5.78;;;9.80;99.90;;;;;;5101934;27;20093;-86
2022/03/14 02:07:15;;;;;;;9.70;6.45;;;9.90;99.90;;;;;;5134181;27;20055;-85
2022/03/14 02:09:41;;;;;;;8.40;6.63;;;9.90;99.90;;;;;;5134061;27;20043;-85
2022/03/14 02:12:08;;;;;;;7.70;5.88;;;9.80;99.90;;;;;;5117732;27;20042;-86
2022/03/14 02:14:39;;;;;;;6.80;5.85;;;9.80;99.90;;;;;;5100301;27;20047;-85
2022/03/14 02:17:20;;;;;;;7.50;5.78;;;9.80;99.90;;;;;;5118255;27;20051;-85
2022/03/14 02:19:45;;;;;;;6.68;5.72;;;9.80;99.90;;;;;;5133796;27;20039;-85
2022/03/14 02:22:14;;;;;;;6.40;5.65;;;9.80;99.90;;;;;;5117345;27;20107;-85
2022/03/14 02:24:45;;;;;;;7.07;5.75;;;9.80;99.90;;;;;;5117181;27;20125;-85
2022/03/14 02:27:14;;;;;;;7.70;6.18;;;9.80;99.90;;;;;;5117033;27;20143;-85
2022/03/14 02:29:40;;;;;;;7.55;6.22;;;9.70;99.90;;;;;;5116738;27;20038;-85
2022/03/14 02:32:07;;;;;;;7.22;5.85;;;9.70;99.90;;;;;;5133484;27;20382;-85
2022/03/14 02:34:33;;;;;;;7.80;6.43;;;9.70;99.90;;;;;;5116669;27;20054;-85
2022/03/14 02:36:59;;;;;;;8.40;5.93;;;9.70;99.90;;;;;;5134623;27;20043;-85
2022/03/14 02:39:25;;;;;;;6.75;6.00;;;9.70;99.90;;;;;;5117222;27;20108;-85
2022/03/14 02:41:50;;;;;;;9.13;5.70;;;9.70;99.90;;;;;;5116360;27;20043;-85
2022/03/14 02:44:16;;;;;;;6.53;5.47;;;9.60;99.90;;;;;;5099703;27;20039;-85
2022/03/14 02:46:42;;;;;;;8.25;5.88;;;9.60;99.90;;;;;;5133507;27;20047;-86
2022/03/14 02:49:09;;;;;;;7.72;6.57;;;9.60;99.90;;;;;;5115634;27;20053;-85
2022/03/14 02:51:38;;;;;;;7.38;5.57;;;9.60;99.90;;;;;;5082441;27;20383;-86
2022/03/14 02:54:10;;;;;;;6.32;5.63;;;9.70;99.90;;;;;;5099817;27;20375;-86
2022/03/14 02:56:37;;;;;;;6.50;5.60;;;9.70;99.90;;;;;;5116028;27;20186;-86
2022/03/14 02:59:04;;;;;;;6.13;5.43;;;9.70;99.90;;;;;;5115802;27;20051;-85
2022/03/14 03:01:29;;;;;;;6.22;4.65;;;9.80;99.90;;;;;;5116032;27;20471;-86
2022/03/14 03:03:55;;;;;;;6.53;5.13;;;9.80;99.90;;;;;;5132221;27;20082;-85
2022/03/14 03:06:22;;;;;;;6.18;4.63;;;9.80;99.90;;;;;;5097214;27;20126;-85
2022/03/14 03:08:52;;;;;;;5.53;4.75;;;9.80;99.90;;;;;;5131722;27;20054;-85
2022/03/14 03:11:18;;;;;;;5.68;5.07;;;9.70;99.90;;;;;;5115343;27;20103;-85
2022/03/14 03:13:45;;;;;;;7.28;4.80;;;9.70;99.90;;;;;;5132470;27;20137;-85
2022/03/14 03:16:13;;;;;;;5.63;4.90;;;9.80;99.90;;;;;;5097969;27;20043;-85
2022/03/14 03:18:39;;;;;;;6.13;4.80;;;9.70;99.90;;;;;;5115687;27;20054;-85
2022/03/14 03:21:05;;;;;;;4.90;4.40;;;9.70;99.90;;;;;;5081364;27;20047;-85
2022/03/14 03:23:30;;;;;;;7.53;4.90;;;9.70;99.90;;;;;;5115227;27;20051;-85
2022/03/14 03:25:56;;;;;;;5.18;4.68;;;9.60;99.90;;;;;;5131726;27;20035;-85
2022/03/14 03:28:22;;;;;;;5.47;4.97;;;9.60;99.90;;;;;;5115048;27;20092;-85
2022/03/14 03:30:48;;;;;;;5.70;4.80;;;9.60;99.90;;;;;;5098281;27;20035;-85
2022/03/14 03:33:14;;;;;;;5.53;4.38;;;9.50;99.90;;;;;;5114846;27;20046;-84
2022/03/14 03:35:39;;;;;;;5.93;4.38;;;9.60;99.90;;;;;;5133392;27;20265;-85
2022/03/14 03:38:05;;;;;;;5.07;4.50;;;9.60;99.90;;;;;;5131456;27;20135;-85
2022/03/14 03:40:31;;;;;;;6.13;4.95;;;9.60;99.90;;;;;;5132687;27;20043;-85
2022/03/14 03:42:56;;;;;;;5.75;5.20;;;9.50;99.90;;;;;;5097899;27;20413;-85
2022/03/14 03:45:22;;;;;;;5.78;4.90;;;9.50;99.90;;;;;;5106604;28;20092;-85
2022/03/14 03:47:48;;;;;;;6.90;5.22;;;9.50;99.90;;;;;;5122148;28;20028;-84
2022/03/14 03:50:14;;;;;;;7.70;5.28;;;9.40;99.90;;;;;;5085999;28;20073;-85
2022/03/14 03:52:40;;;;;;;5.78;5.18;;;9.40;99.90;;;;;;5112780;28;20047;-85
2022/03/14 03:55:06;;;;;;;9.25;5.72;;;9.50;99.90;;;;;;5094011;28;20122;-85
2022/03/14 03:57:31;;;;;;;6.95;5.43;;;9.30;99.90;;;;;;5094310;28;20039;-85
2022/03/14 03:59:57;;;;;;;5.85;5.18;;;9.30;99.90;;;;;;5110391;28;20043;-85
2022/03/14 04:02:23;;;;;;;8.50;5.68;;;9.30;99.90;;;;;;5094313;28;20039;-85
2022/03/14 04:04:49;;;;;;;5.85;4.90;;;9.20;99.90;;;;;;5094700;28;20043;-85
2022/03/14 04:07:18;;;;;;;6.38;5.65;;;9.20;99.90;;;;;;5110827;28;20051;-85
2022/03/14 04:09:49;;;;;;;6.47;5.68;;;9.20;99.90;;;;;;5112591;28;20055;-85
2022/03/14 04:12:15;;;;;;;6.47;5.60;;;9.20;99.90;;;;;;5110813;28;20132;-85
2022/03/14 04:14:41;;;;;;;7.82;5.60;;;9.10;99.90;;;;;;5094018;28;20066;-85
2022/03/14 04:17:08;;;;;;;6.72;5.50;;;9.10;99.90;;;;;;5110589;28;20062;-85
2022/03/14 04:19:40;;;;;;;7.65;6.07;;;9.10;99.90;;;;;;5112170;28;20046;-85
2022/03/14 04:22:07;;;;;;;5.72;5.15;;;9.00;99.90;;;;;;5110913;28;20067;-85
2022/03/14 04:24:35;;;;;;;6.47;5.30;;;9.10;99.90;;;;;;5094425;28;20040;-86
2022/03/14 04:27:01;;;;;;;7.25;5.53;;;9.10;99.90;;;;;;5094033;28;20047;-85
2022/03/14 04:29:28;;;;;;;6.72;5.03;;;9.10;99.90;;;;;;5093692;28;20143;-85
2022/03/14 04:31:54;;;;;;;6.03;5.43;;;9.10;99.90;;;;;;5110542;28;20118;-85
2022/03/14 04:34:20;;;;;;;6.60;5.28;;;9.10;99.90;;;;;;5093553;28;20503;-85
2022/03/14 04:36:50;;;;;;;6.38;5.70;;;9.10;99.90;;;;;;5111186;28;20097;-85
2022/03/14 04:39:16;;;;;;;5.53;4.72;;;9.10;99.90;;;;;;5097413;28;20043;-85
2022/03/14 04:41:43;;;;;;;4.88;4.45;;;9.10;99.90;;;;;;5117773;28;20031;-85
2022/03/14 04:44:08;;;;;;;5.20;4.43;;;9.10;99.90;;;;;;5112091;28;20044;-85
2022/03/14 04:46:34;;;;;;;4.78;4.28;;;9.10;99.90;;;;;;5111268;28;20092;-85
2022/03/14 04:49:00;;;;;;;5.53;4.35;;;9.20;99.90;;;;;;5109744;28;20081;-85
2022/03/14 04:51:26;;;;;;;4.47;4.07;;;9.20;99.90;;;;;;5093613;28;20468;-85
2022/03/14 04:53:51;;;;;;;4.35;3.95;;;9.30;99.90;;;;;;5093452;28;20048;-85
2022/03/14 04:56:17;;;;;;;4.10;3.70;;;9.30;99.90;;;;;;5109652;28;20054;-86
2022/03/14 04:58:43;;;;;;;4.50;4.00;;;9.40;99.90;;;;;;5110135;28;20122;-85
2022/03/14 05:01:08;;;;;;;3.70;3.40;;;9.50;99.90;;;;;;5111729;28;20043;-85
2022/03/14 05:03:35;;;;;;;6.55;4.22;;;9.50;99.90;;;;;;5111414;28;20101;-85
2022/03/14 05:06:01;;;;;;;4.35;3.95;;;9.50;99.90;;;;;;5092683;28;20055;-85
2022/03/14 05:08:26;;;;;;;4.32;3.92;;;9.50;99.90;;;;;;5093570;28;20062;-85
2022/03/14 05:10:52;;;;;;;4.57;4.03;;;9.50;99.90;;;;;;5110005;28;20126;-85
2022/03/14 05:13:18;;;;;;;4.72;3.90;;;9.50;99.90;;;;;;5110089;28;20039;-85
2022/03/14 05:15:43;;;;;;;4.07;3.67;;;9.40;99.90;;;;;;5093473;28;20558;-85
2022/03/14 05:18:09;;;;;;;4.07;3.72;;;9.60;99.90;;;;;;5076047;28;20134;-85
2022/03/14 05:20:37;;;;;;;5.95;4.53;;;9.30;99.90;;;;;;5093645;28;20097;-85
2022/03/14 05:23:03;;;;;;;5.60;4.20;;;9.30;99.90;;;;;;5110638;28;20093;-85
2022/03/14 05:25:30;;;;;;;4.35;3.95;;;9.30;99.90;;;;;;5110748;28;20071;-85
2022/03/14 05:27:56;;;;;;;4.90;4.40;;;9.30;99.90;;;;;;5094223;28;20051;-85
2022/03/14 05:30:22;;;;;;;4.68;4.28;;;9.30;99.90;;;;;;5112657;28;20035;-86
2022/03/14 05:32:49;;;;;;;7.40;4.40;;;9.30;99.90;;;;;;5129065;28;20087;-84
2022/03/14 05:35:15;;;;;;;6.32;4.75;;;9.20;99.90;;;;;;5093595;28;20108;-85
2022/03/14 05:37:42;;;;;;;5.82;4.32;;;9.20;99.90;;;;;;5076731;28;20090;-84
2022/03/14 05:40:08;;;;;;;4.63;4.22;;;9.20;99.90;;;;;;5093017;28;20047;-84
2022/03/14 05:42:34;;;;;;;5.05;4.43;;;9.20;99.90;;;;;;5076350;28;20096;-84
2022/03/14 05:45:00;;;;;;;4.93;4.38;;;9.20;99.90;;;;;;5093237;28;20146;-85
2022/03/14 05:47:25;;;;;;;5.20;4.70;;;9.20;99.90;;;;;;5091826;28;20047;-84
2022/03/14 05:49:51;;;;;;;6.10;4.90;;;9.20;99.90;;;;;;5111323;27;20047;-83
2022/03/14 05:52:17;;;;;;;5.38;4.88;;;9.20;99.90;;;;;;5133476;27;20035;-83
2022/03/14 05:54:43;;;;;;;4.93;4.35;;;9.20;99.90;;;;;;5133828;27;20101;-84
2022/03/14 05:57:08;;;;;;;5.40;4.90;;;9.20;99.90;;;;;;5133236;27;20045;-83
2022/03/14 05:59:34;;;;;;;5.95;5.35;;;9.30;99.90;;;;;;5133580;27;20167;-84
2022/03/14 06:01:59;;;;;;;5.68;4.75;;;9.20;99.90;;;;;;5133807;27;20039;-84
2022/03/14 06:04:26;;;;;;;5.13;4.63;;;9.20;99.90;;;;;;5133672;27;20054;-83
2022/03/14 06:06:53;;;;;;;5.60;4.78;;;9.80;99.90;;;;;;5116381;27;20506;-84
2022/03/14 06:09:19;;;;;;;5.38;4.88;;;9.20;99.90;;;;;;5133434;27;20047;-83
2022/03/14 06:11:46;;;;;;;7.22;4.82;;;9.20;99.90;;;;;;5133985;27;20398;-83
2022/03/14 06:14:12;;;;;;;6.65;5.28;;;9.20;99.90;;;;;;5133415;27;20150;-83
2022/03/14 06:16:38;;;;;;;5.88;5.28;;;9.20;99.90;;;;;;5133944;27;20118;-83
2022/03/14 06:19:04;;;;;;;6.28;5.50;;;9.20;99.90;;;;;;5116875;27;20352;-83
2022/03/14 06:21:30;;;;;;;6.60;5.82;;;9.10;99.90;;;;;;5116132;27;20100;-83
2022/03/14 06:23:55;;;;;;;6.60;5.75;;;9.10;99.90;;;;;;5133339;27;20051;-84
2022/03/14 06:26:21;;;;;;;6.55;5.63;;;9.10;99.90;;;;;;5134158;27;20043;-83
2022/03/14 06:28:47;;;;;;;6.60;5.90;;;9.10;99.90;;;;;;5116807;27;20051;-83
2022/03/14 06:31:15;;;;;;;6.85;5.90;;;9.10;99.90;;;;;;5133794;27;20047;-81
2022/03/14 06:33:40;;;;;;;6.35;5.70;;;9.10;99.90;;;;;;5134371;27;20082;-83
2022/03/14 06:36:06;;;;;;;6.75;6.00;;;9.00;99.90;;;;;;5116291;27;20078;-84
2022/03/14 06:38:32;;;;;;;8.25;6.68;;;9.00;99.90;;;;;;5116142;27;20074;-83
2022/03/14 06:40:59;;;;;;;6.70;6.05;;;9.00;99.90;;;;;;5134745;27;20054;-83
2022/03/14 06:43:24;;;;;;;7.00;6.30;;;9.00;99.90;;;;;;5116137;27;20062;-83
2022/03/14 06:45:50;;;;;;;7.38;6.35;;;9.00;99.90;;;;;;5141525;27;20055;-83
2022/03/14 06:48:16;;;;;;;6.85;6.15;;;9.00;99.90;;;;;;5142100;27;20047;-83
2022/03/14 06:50:41;;;;;;;9.23;7.03;;;9.00;99.90;;;;;;5132670;27;20053;-83
2022/03/14 06:53:07;;;;;;;8.32;6.75;;;8.90;99.90;;;;;;5132718;27;20080;-83
2022/03/14 06:55:33;;;;;;;7.60;6.57;;;9.00;99.90;;;;;;5133330;27;20043;-82
2022/03/14 06:57:59;;;;;;;7.57;6.70;;;9.00;99.90;;;;;;5132701;27;20038;-82
2022/03/14 07:00:25;;;;;;;9.10;7.93;;;8.90;99.90;;;;;;5115117;27;20112;-82
2022/03/14 07:02:50;;;;;;;8.15;7.30;;;8.90;99.90;;;;;;5132693;27;20043;-83
2022/03/14 07:05:21;;;;;;;8.38;7.25;;;9.00;99.90;;;;;;5132192;27;20042;-84
2022/03/14 07:07:47;;;;;;;8.45;7.57;;;8.90;99.90;;;;;;5114576;27;20044;-83
2022/03/14 07:10:16;;;;;;;9.00;7.55;;;8.90;99.90;;;;;;5128902;27;20042;-83
2022/03/14 07:12:46;;;;;;;8.18;7.32;;;8.90;99.90;;;;;;5114408;27;20118;-83
2022/03/14 07:15:16;;;;;;;9.60;7.88;;;8.90;99.90;;;;;;5097952;27;20035;-83
2022/03/14 07:17:43;;;;;;;9.63;8.60;;;9.00;99.90;;;;;;5125397;27;20493;-83
2022/03/14 07:20:09;;;;;;;10.00;8.15;;;8.90;99.90;;;;;;5131470;27;20043;-83
2022/03/14 07:22:48;;;;;;;13.20;8.85;;;8.90;99.90;;;;;;5096860;27;20409;-83
2022/03/14 07:25:14;;;;;;;10.45;8.40;;;8.90;99.90;;;;;;5126087;27;20378;-83
2022/03/14 07:27:39;;;;;;;10.55;8.23;;;8.90;99.90;;;;;;5128195;27;20051;-84
2022/03/14 07:30:06;;;;;;;11.85;9.02;;;8.90;99.90;;;;;;5093886;28;20047;-83
2022/03/14 07:32:32;;;;;;;11.55;9.13;;;8.90;99.90;;;;;;5107070;27;20031;-83
2022/03/14 07:34:57;;;;;;;15.38;9.38;;;8.90;99.90;;;;;;5131771;27;20497;-83
2022/03/14 07:37:23;;;;;;;11.65;9.13;;;8.90;99.90;;;;;;5114371;27;20062;-83
2022/03/14 07:39:49;;;;;;;11.05;8.85;;;9.80;99.90;;;;;;5131761;27;20039;-83
2022/03/14 07:42:15;;;;;;;14.30;9.40;;;9.00;99.90;;;;;;5131515;27;20047;-83
2022/03/14 07:44:42;;;;;;;11.52;9.27;;;9.00;99.90;;;;;;5126130;27;20119;-83
2022/03/14 07:47:10;;;;;;;11.88;9.18;;;9.00;99.90;;;;;;5093830;28;20040;-83
2022/03/14 07:49:36;;;;;;;14.02;10.55;;;9.00;99.90;;;;;;5094066;28;20043;-83
2022/03/14 07:52:02;;;;;;;12.65;9.98;;;9.00;99.90;;;;;;5127856;27;20047;-82
2022/03/14 07:54:33;;;;;;;13.10;9.93;;;9.00;99.90;;;;;;5111353;27;20050;-82
2022/03/14 07:56:59;;;;;;;11.45;9.52;;;9.00;99.90;;;;;;5123147;27;20051;-83
2022/03/14 07:59:25;;;;;;;14.70;10.40;;;9.10;99.90;;;;;;5142181;27;20039;-83
2022/03/14 08:01:50;;;;;;;15.00;11.38;;;9.00;99.90;;;;;;5125475;27;20293;-83
2022/03/14 08:04:16;;;;;;;14.23;10.98;;;9.10;99.90;;;;;;5131091;27;20043;-84
2022/03/14 08:06:42;;;;;;;13.90;10.50;;;9.10;99.90;;;;;;5127441;27;20047;-84
2022/03/14 08:09:08;;;;;;;13.68;11.35;;;9.10;99.90;;;;;;5096606;27;20417;-83
2022/03/14 08:11:35;;;;;;;13.25;10.82;;;9.10;99.90;;;;;;5113696;27;20091;-83
2022/03/14 08:14:02;;;;;;;13.38;10.52;;;9.20;99.90;;;;;;5096911;27;20047;-83
2022/03/14 08:16:28;;;;;;;13.18;10.77;;;9.20;99.90;;;;;;5131520;27;20043;-82
2022/03/14 08:18:53;;;;;;;13.20;11.10;;;9.20;99.90;;;;;;5131639;27;20039;-83
2022/03/14 08:21:19;;;;;;;13.55;10.57;;;9.20;99.90;;;;;;5132033;27;20047;-83
2022/03/14 08:23:48;;;;;;;12.48;11.02;;;9.20;99.90;;;;;;5130215;27;20039;-83
2022/03/14 08:26:14;;;;;;;15.57;10.77;;;9.30;99.90;;;;;;5130522;27;20494;-83
2022/03/14 08:28:41;;;;;;;14.70;12.02;;;9.30;99.90;;;;;;5112263;27;20046;-83
2022/03/14 08:31:06;;;;;;;13.85;11.60;;;9.30;99.90;;;;;;5123198;27;20047;-83
2022/03/14 08:33:32;;;;;;;13.20;10.75;;;9.30;99.90;;;;;;5108999;27;20480;-83
2022/03/14 08:36:00;;;;;;;13.48;11.43;;;9.30;99.90;;;;;;5113897;28;20104;-84
2022/03/14 08:38:26;;;;;;;16.85;12.68;;;9.30;99.90;;;;;;5113753;27;20051;-84
2022/03/14 08:40:52;;;;;;;16.13;12.25;;;9.40;99.90;;;;;;5112662;27;20046;-83
2022/03/14 08:43:18;;;;;;;17.92;13.38;;;9.40;99.90;;;;;;5112763;28;20039;-82
2022/03/14 08:45:45;;;;;;;18.23;13.68;;;9.40;99.90;;;;;;5129778;28;20070;-84
2022/03/14 08:48:14;;;;;;;14.27;12.18;;;9.40;99.90;;;;;;5113844;28;20133;-83
2022/03/14 08:50:40;;;;;;;17.65;12.50;;;9.40;99.90;;;;;;5125161;28;20355;-83
2022/03/14 08:53:09;;;;;;;15.95;12.48;;;9.40;99.90;;;;;;5107011;28;20066;-83
2022/03/14 08:55:35;;;;;;;17.13;12.77;;;9.40;99.90;;;;;;5093571;28;20061;-82
2022/03/14 08:58:02;;;;;;;15.48;12.68;;;9.40;99.90;;;;;;5131770;27;20564;-83
2022/03/14 09:00:29;;;;;;;16.83;12.60;;;9.40;99.90;;;;;;5143301;28;20055;-82
2022/03/14 09:02:55;;;;;;;17.73;13.60;;;9.40;99.90;;;;;;5135296;27;20109;-82
2022/03/14 09:05:21;;;;;;;16.27;13.82;;;9.40;99.90;;;;;;5130251;28;20076;-82
2022/03/14 09:07:47;;;;;;;17.17;13.52;;;9.40;99.90;;;;;;5129552;28;20519;-83
2022/03/14 09:10:13;;;;;;;19.63;13.38;;;9.50;99.90;;;;;;5130279;28;20043;-83
2022/03/14 09:12:39;;;;;;;15.93;13.63;;;9.50;99.90;;;;;;5112912;28;20047;-84
2022/03/14 09:15:09;;;;;;;18.33;14.52;;;9.50;99.90;;;;;;5129930;28;20133;-83
2022/03/14 09:17:35;;;;;;;17.35;14.35;;;9.50;99.90;;;;;;5130082;28;20050;-83
2022/03/14 09:20:01;;;;;;;17.83;14.73;;;9.60;99.90;;;;;;5125491;28;20103;-84
2022/03/14 09:22:28;;;;;;;16.70;13.30;;;9.60;99.90;;;;;;5121911;28;20073;-83
2022/03/14 09:24:55;;;;;;;18.00;14.82;;;9.60;99.90;;;;;;5082620;28;20047;-83
2022/03/14 09:27:21;;;;;;;18.25;13.45;;;9.60;99.90;;;;;;5115768;27;20047;-84
2022/03/14 09:29:47;;;;;;;18.65;13.85;;;9.70;99.90;;;;;;5096294;28;20533;-81
2022/03/14 09:32:14;;;;;;;19.02;14.70;;;9.70;99.90;;;;;;5096718;28;20039;-82
2022/03/14 09:34:40;;;;;;;17.67;14.80;;;9.70;99.90;;;;;;5112926;28;20198;-83
2022/03/14 09:37:06;;;;;;;18.40;14.80;;;9.70;99.90;;;;;;5112906;28;20046;-83
2022/03/14 09:39:32;;;;;;;17.40;14.75;;;9.70;99.90;;;;;;5113191;28;20040;-82
2022/03/14 09:41:58;;;;;;;20.70;16.30;;;9.80;99.90;;;;;;5095919;28;20626;-84
2022/03/14 09:44:24;;;;;;;17.20;15.07;;;9.80;99.90;;;;;;5079735;28;20158;-83
2022/03/14 09:46:49;;;;;;;17.25;14.70;;;9.80;99.90;;;;;;5095281;28;20040;-84
2022/03/14 09:49:16;;;;;;;18.40;14.85;;;9.80;99.90;;;;;;5082442;27;20044;-83
2022/03/14 09:51:42;;;;;;;19.20;16.08;;;9.90;99.90;;;;;;5098153;27;20060;-83
2022/03/14 09:54:09;;;;;;;19.10;15.18;;;9.90;99.90;;;;;;5115847;27;20043;-84
2022/03/14 09:56:41;;;;;;;18.10;15.50;;;9.90;99.90;;;;;;5113291;27;20043;-84
2022/03/14 09:59:11;;;;;;;20.00;15.40;;;9.80;99.90;;;;;;5130612;27;20043;-84
2022/03/14 10:01:36;;;;;;;23.50;16.50;;;9.90;99.90;;;;;;5115546;27;20118;-84
2022/03/14 10:04:02;;;;;;;22.85;16.55;;;9.80;99.90;;;;;;5109374;27;20109;-84
2022/03/14 10:06:29;;;;;;;23.88;17.38;;;9.80;99.90;;;;;;5133335;27;20554;-85
2022/03/14 10:08:54;;;;;;;25.85;18.23;;;9.90;99.90;;;;;;5133206;27;20111;-84
2022/03/14 10:11:20;;;;;;;28.75;18.17;;;9.60;99.90;;;;;;5133481;27;20138;-83
2022/03/14 10:13:46;;;;;;;30.73;21.08;;;9.70;99.90;;;;;;5132565;27;20039;-83
2022/03/14 10:16:12;;;;;;;32.85;20.55;;;9.70;99.90;;;;;;5116167;27;20047;-83
2022/03/14 10:18:58;;;;;;;31.42;20.35;;;9.60;99.90;;;;;;5132980;27;20043;-83
2022/03/14 10:21:35;;;;;;;32.92;20.75;;;10.70;99.90;;;;;;5115433;27;20062;-83
2022/03/14 10:24:08;;;;;;;35.20;21.83;;;9.50;99.90;;;;;;5114436;27;20043;-84
2022/03/14 10:26:35;;;;;;;32.75;21.25;;;9.50;99.90;;;;;;5098593;27;20027;-84
2022/03/14 10:29:02;;;;;;;30.88;18.38;;;9.40;99.90;;;;;;5132488;27;20054;-83
2022/03/14 10:31:33;;;;;;;24.52;16.23;;;9.40;99.90;;;;;;5133240;27;20047;-83
2022/03/14 10:34:08;;;;;;;26.08;15.65;;;9.40;99.90;;;;;;5098828;27;20053;-83
2022/03/14 10:36:46;;;;;;;19.98;11.48;;;9.30;99.90;;;;;;5116068;27;20051;-84
2022/03/14 10:39:29;;;;;;;23.50;13.15;;;9.30;99.90;;;;;;5134088;27;20046;-84
2022/03/14 10:42:05;;;;;;;21.38;11.30;;;9.30;99.90;;;;;;5116482;27;20043;-84
2022/03/14 10:44:31;;;;;;;25.25;12.45;;;9.30;99.90;;;;;;5114390;27;20053;-83
2022/03/14 10:47:01;;;;;;;22.00;12.40;;;9.30;99.90;;;;;;5078276;28;20035;-84
2022/03/14 10:49:28;;;;;;;24.25;13.18;;;9.30;99.90;;;;;;5114168;27;20418;-84
2022/03/14 10:51:59;;;;;;;24.65;13.23;;;9.40;99.90;;;;;;5129766;27;20435;-84
2022/03/14 10:54:25;;;;;;;24.48;13.00;;;9.30;99.90;;;;;;5096186;27;20112;-84
2022/03/14 10:57:10;;;;;;;28.45;14.10;;;9.40;99.90;;;;;;5142973;27;20047;-84
2022/03/14 10:59:36;;;;;;;29.85;14.43;;;9.30;99.90;;;;;;5135428;27;20115;-84
2022/03/14 11:02:07;;;;;;;26.73;14.45;;;9.40;99.90;;;;;;5114907;27;20075;-86
2022/03/14 11:04:45;;;;;;;28.42;15.13;;;9.50;99.90;;;;;;5133271;27;20042;-84
2022/03/14 11:07:11;;;;;;;32.83;15.20;;;9.50;99.90;;;;;;5097516;27;20055;-84
2022/03/14 11:09:42;;;;;;;33.70;16.60;;;9.70;99.90;;;;;;5114833;27;20043;-84
2022/03/14 11:12:09;;;;;;;31.33;16.33;;;9.70;99.90;;;;;;5121346;27;20486;-85
2022/03/14 11:14:36;;;;;;;29.95;14.77;;;9.90;99.90;;;;;;5093182;28;20387;-84
2022/03/14 11:17:14;;;;;;;30.73;16.00;;;10.00;99.90;;;;;;5124262;27;20047;-84
2022/03/14 11:19:40;;;;;;;32.28;15.95;;;10.10;99.90;;;;;;5125979;27;20044;-85
2022/03/14 11:22:09;;;;;;;29.02;15.02;;;10.10;99.90;;;;;;5110841;28;20387;-83
2022/03/14 11:24:35;;;;;;;29.33;15.60;;;10.10;99.90;;;;;;5111522;28;20066;-83
2022/03/14 11:27:01;;;;;;;31.65;15.30;;;10.20;99.90;;;;;;5093855;28;20043;-83
2022/03/14 11:29:27;;;;;;;29.63;16.00;;;10.30;99.90;;;;;;5077888;28;20066;-83
2022/03/14 11:31:55;;;;;;;29.83;15.68;;;10.30;99.90;;;;;;5093938;28;20471;-83
2022/03/14 11:34:26;;;;;;;30.23;15.23;;;10.30;99.90;;;;;;5111319;28;20082;-84
2022/03/14 11:36:53;;;;;;;26.73;15.30;;;10.40;99.90;;;;;;5112023;28;20036;-83
2022/03/14 11:39:20;;;;;;;27.65;15.68;;;10.50;99.90;;;;;;5095442;28;20047;-82
2022/03/14 11:41:46;;;;;;;25.55;13.35;;;10.40;99.90;;;;;;5096432;27;20084;-84
2022/03/14 11:44:12;;;;;;;26.50;13.85;;;10.30;99.90;;;;;;5114295;27;20328;-84
2022/03/14 11:46:37;;;;;;;27.67;14.10;;;10.30;99.90;;;;;;5114673;27;20043;-84
2022/03/14 11:49:12;;;;;;;23.90;13.07;;;10.20;99.90;;;;;;5097324;27;20444;-84
2022/03/14 11:51:38;;;;;;;23.67;13.75;;;10.20;99.90;;;;;;5114425;27;20047;-84
2022/03/14 11:54:11;;;;;;;22.77;13.25;;;10.10;99.90;;;;;;5131550;27;20039;-84
2022/03/14 11:56:38;;;;;;;20.88;13.43;;;10.10;99.90;;;;;;5132097;27;20062;-84
2022/03/14 11:59:08;;;;;;;24.92;15.07;;;10.00;99.90;;;;;;5132031;27;20454;-84
2022/03/14 12:01:34;;;;;;;31.40;16.35;;;10.10;99.90;;;;;;5131673;27;20031;-84
2022/03/14 12:04:05;;;;;;;26.08;15.10;;;10.10;99.90;;;;;;5121848;27;20037;-83
2022/03/14 12:06:46;;;;;;;23.70;13.82;;;10.10;99.90;;;;;;5104239;27;20395;-83
2022/03/14 12:09:24;;;;;;;25.85;14.80;;;10.10;99.90;;;;;;5130168;27;20127;-83
2022/03/14 12:11:50;;;;;;;24.95;14.32;;;10.10;99.90;;;;;;5131111;27;20352;-83
2022/03/14 12:14:46;;;;;;;26.10;14.00;;;10.00;99.90;;;;;;5134755;27;20047;-81
2022/03/14 12:17:15;;;;;;;26.90;14.70;;;10.00;99.90;;;;;;5133453;27;20051;-82
2022/03/14 12:19:42;;;;;;;25.65;13.88;;;10.00;99.90;;;;;;5113773;27;20050;-83
2022/03/14 12:22:16;;;;;;;23.25;13.27;;;10.10;99.90;;;;;;5113401;27;20039;-83
2022/03/14 12:24:47;;;;;;;22.77;15.45;;;10.20;99.90;;;;;;5097898;27;20045;-83
2022/03/14 12:27:24;;;;;;;25.73;16.23;;;10.20;99.90;;;;;;5131612;27;20046;-84
2022/03/14 12:29:54;;;;;;;22.88;13.65;;;10.20;99.90;;;;;;5133515;27;20384;-84
2022/03/14 12:32:23;;;;;;;26.10;15.38;;;10.30;99.90;;;;;;5096924;28;20063;-84
2022/03/14 12:35:22;;;;;;;31.75;15.68;;;10.40;99.90;;;;;;5130975;27;20043;-83
2022/03/14 12:37:49;;;;;;;30.08;16.77;;;10.30;99.90;;;;;;5123109;27;20135;-83
2022/03/14 12:40:21;;;;;;;25.80;17.25;;;10.30;99.90;;;;;;5130653;27;20062;-85
2022/03/14 12:43:12;;;;;;;26.73;18.15;;;10.20;99.90;;;;;;5131639;27;20426;-84
2022/03/14 12:45:43;;;;;;;30.75;20.75;;;10.20;99.90;;;;;;5131252;28;20054;-84